Weather

Webcam

Metar / TAF

Zurich

  • LSZH 100220Z AUTO 14007KT 9999 NSC 18/05 Q1006 NOSIG

  • TAF LSZH 092025Z 0921/1103 VRB02KT CAVOK TX21/1012Z TN11/1004Z PROB30 TEMPO 0921/0922 15010KT PROB40 TEMPO 1010/1018 29010KT BECMG 1019/1021 9999 SCT020 BKN040

Dübendorf

  • LSMD 100150Z AUTO 15008KT 9999NDV SCT230 18/06 Q1006 RMK

  • TAF LSMD 091625Z 0917/1023 24008KT CAVOK PROB30 TEMPO 0917/0922 16015G25KT BECMG 1009/1012 9999 SCT090 PROB40 TEMPO 1011/1019 17012G28KT PROB30 1018/1023 SHRA SCT050TCU

St. Gallen

  • LSZR 100220Z AUTO 18023G47KT 130V240 9999 NCD 23/05 Q1006

  • TAF AMD LSZR 222054Z 2220/2224 CNL

Bern

  • LSZB 100220Z AUTO 02003KT 310V090 9999 FEW060 SCT090 BKN100 16/07 Q1007

  • TAF AMD TAF AMD LSZB 222054Z 2220/2224 CNL

Locarno

  • LSZL 100220Z AUTO VRB01KT 9999NDV BKN089 14/14 Q1017 RMK

  • TAF AMD TAF AMD LSZL 150713Z 1509/1521 VRB03KT 9999 SCT050

Samedan

  • LSZS 100220Z AUTO 16003KT 090V260 9999 -RA BKN037 BKN046 BKN055 07/05 Q1019

  • TAF AMD LSZS 222054Z 2220/2224 CNL

Geneve

  • LSGG 100220Z AUTO 30005KT 9999 FEW085 BKN095 18/07 Q1007 NOSIG

  • TAF LSGG 092025Z 0921/1103 23008KT 9999 FEW060 TX17/1014Z TN12/1004Z TEMPO 1003/1009 SHRA BKN035 BECMG 1008/1010 RA OVC025 TEMPO 1008/1018 4000 +RA OVC014 SCT020TCU PROB40 TEMPO 1009/1017 TS SCT030CB BECMG 1018/1020 NSW TEMPO 1018/1021 SHRA PROB30 TEMPO 1018/1021 32010KT

Weather-Charts



Wind at FL50: 06:00z, 09:00z, 12:00z, 15:00z and 18:00z